WXM80 ListenWXM80 Stop

You find our weather info also at:

UK Metoffice

WeatherCloud

Weather Underground

Northeastern Weather Network

AWEKAS

Citizen Weather Observer Program (CWOP)

HAMweather, WeatherForYou, PWS Weather


Weather Underground History page Text

Daily Summary for June 22, 2017 Units:  Both    English   Metric
« Previous Day
Next Day »
Daily Weekly Monthly Yearly Custom
  High: Low: Average:
Temperature: 86.0 °F /  30 °C 61.1 °F /  16.2 °C 74.2 °F /  23.4 °C
Dew Point: 70.0 °F /  21.1 °C 59.0 °F /  15 °C 63.3 °F /  17.4 °C
Humidity: 96 % 45 % 71 %
Wind Speed: 7.0 mph /  11.3 km/h - 0.9 mph /  1.4 km/h
Wind Gust: 12.0 mph /  19.3 km/h - -
Wind:- - SSE
Pressure: 30.00 in /  1015.8 hPa 29.85 in /  1010.7 hPa -
Precipitation: 0.00 in /  0 mm    
Historical Graphs
 
 
Tabular Data for June 22, 2017
Time Temperature Dew Point Pressure Wind Wind Speed Wind Gust Humidity Rainfall Rate (Hourly)
00:04 70.4 °F /  21.3 °C 62.8 °F /  17.1 °C 29.90 in /  1012.4 hPa Calm   1.2 mph /  1.9 km/h 77 % 0.00 in /  0 mm
00:09 70.3 °F /  21.3 °C 63.1 °F /  17.3 °C 29.90 in /  1012.4 hPa Calm   1.2 mph /  1.9 km/h 78 % 0.00 in /  0 mm
00:14 70.1 °F /  21.2 °C 62.9 °F /  17.2 °C 29.90 in /  1012.4 hPa Calm     78 % 0.00 in /  0 mm
00:19 70.0 °F /  21.1 °C 62.8 °F /  17.1 °C 29.91 in /  1012.8 hPa Calm     78 % 0.00 in /  0 mm
00:24 69.9 °F /  21.1 °C 62.7 °F /  17.1 °C 29.90 in /  1012.4 hPa Calm     78 % 0.00 in /  0 mm
00:29 69.7 °F /  20.9 °C 63.3 °F /  17.4 °C 29.90 in /  1012.4 hPa Calm     80 % 0.00 in /  0 mm
00:34 69.5 °F /  20.8 °C 63.1 °F /  17.3 °C 29.90 in /  1012.4 hPa Calm     80 % 0.00 in /  0 mm
00:39 69.3 °F /  20.7 °C 63.2 °F /  17.3 °C 29.91 in /  1012.8 hPa Calm     81 % 0.00 in /  0 mm
00:44 69.0 °F /  20.6 °C 62.9 °F /  17.2 °C 29.91 in /  1012.8 hPa Calm     81 % 0.00 in /  0 mm
00:45 69.0 °F /  20.6 °C 62.9 °F /  17.2 °C 29.91 in /  1012.8 hPa Calm     81 % 0.00 in /  0 mm
00:50 68.8 °F /  20.4 °C 63.1 °F /  17.3 °C 29.91 in /  1012.8 hPa Calm     82 % 0.00 in /  0 mm
00:55 68.6 °F /  20.3 °C 62.9 °F /  17.2 °C 29.91 in /  1012.8 hPa Calm   1.2 mph /  1.9 km/h 82 % 0.00 in /  0 mm
01:00 68.3 °F /  20.2 °C 62.9 °F /  17.2 °C 29.91 in /  1012.8 hPa Calm     83 % 0.00 in /  0 mm
01:05 68.0 °F /  20 °C 62.6 °F /  17 °C 29.91 in /  1012.8 hPa Calm     83 % 0.00 in /  0 mm
01:10 67.8 °F /  19.9 °C 62.4 °F /  16.9 °C 29.91 in /  1012.8 hPa Calm     83 % 0.00 in /  0 mm
01:15 67.5 °F /  19.7 °C 62.2 °F /  16.8 °C 29.91 in /  1012.8 hPa Calm     83 % 0.00 in /  0 mm
01:20 67.2 °F /  19.6 °C 62.2 °F /  16.8 °C 29.91 in /  1012.8 hPa Calm     84 % 0.00 in /  0 mm
01:25 67.0 °F /  19.4 °C 62.0 °F /  16.7 °C 29.92 in /  1013.1 hPa Calm     84 % 0.00 in /  0 mm
01:30 66.8 °F /  19.3 °C 62.1 °F /  16.7 °C 29.92 in /  1013.1 hPa Calm     85 % 0.00 in /  0 mm
01:35 66.6 °F /  19.2 °C 61.9 °F /  16.6 °C 29.92 in /  1013.1 hPa Calm     85 % 0.00 in /  0 mm
01:40 66.4 °F /  19.1 °C 62.1 °F /  16.7 °C 29.92 in /  1013.1 hPa Calm     86 % 0.00 in /  0 mm
01:46 66.2 °F /  19 °C 61.9 °F /  16.6 °C 29.92 in /  1013.1 hPa Calm     86 % 0.00 in /  0 mm
01:51 66.0 °F /  18.9 °C 61.7 °F /  16.5 °C 29.92 in /  1013.1 hPa Calm     86 % 0.00 in /  0 mm
01:56 65.8 °F /  18.8 °C 61.5 °F /  16.4 °C 29.92 in /  1013.1 hPa WSW 1.0 mph /  1.6 km/h 2.0 mph /  3.2 km/h 86 % 0.00 in /  0 mm
02:01 65.7 °F /  18.7 °C 61.7 °F /  16.5 °C 29.92 in /  1013.1 hPa Calm     87 % 0.00 in /  0 mm
02:06 65.4 °F /  18.6 °C 61.4 °F /  16.3 °C 29.92 in /  1013.1 hPa WSW 0.8 mph /  1.3 km/h 2.3 mph /  3.7 km/h 87 % 0.00 in /  0 mm
02:11 65.3 °F /  18.5 °C 61.7 °F /  16.5 °C 29.92 in /  1013.1 hPa Calm     88 % 0.00 in /  0 mm
02:16 65.1 °F /  18.4 °C 61.5 °F /  16.4 °C 29.92 in /  1013.1 hPa WSW 0.1 mph /  0.2 km/h 2.3 mph /  3.7 km/h 88 % 0.00 in /  0 mm
02:21 64.9 °F /  18.3 °C 61.3 °F /  16.3 °C 29.92 in /  1013.1 hPa Calm     88 % 0.00 in /  0 mm
02:26 64.8 °F /  18.2 °C 61.2 °F /  16.2 °C 29.92 in /  1013.1 hPa Calm     88 % 0.00 in /  0 mm
02:31 64.7 °F /  18.2 °C 61.1 °F /  16.2 °C 29.92 in /  1013.1 hPa Calm     88 % 0.00 in /  0 mm
02:36 64.5 °F /  18.1 °C 61.2 °F /  16.2 °C 29.92 in /  1013.1 hPa Calm     89 % 0.00 in /  0 mm
02:41 64.5 °F /  18.1 °C 61.2 °F /  16.2 °C 29.92 in /  1013.1 hPa Calm     89 % 0.00 in /  0 mm
02:46 64.3 °F /  17.9 °C 61.0 °F /  16.1 °C 29.92 in /  1013.1 hPa Calm     89 % 0.00 in /  0 mm
02:51 64.2 °F /  17.9 °C 60.9 °F /  16.1 °C 29.92 in /  1013.1 hPa Calm     89 % 0.00 in /  0 mm
02:56 64.1 °F /  17.8 °C 60.8 °F /  16 °C 29.92 in /  1013.1 hPa Calm     89 % 0.00 in /  0 mm
03:01 64.0 °F /  17.8 °C 61.0 °F /  16.1 °C 29.92 in /  1013.1 hPa Calm     90 % 0.00 in /  0 mm
03:06 63.9 °F /  17.7 °C 60.9 °F /  16.1 °C 29.92 in /  1013.1 hPa Calm     90 % 0.00 in /  0 mm
03:11 63.8 °F /  17.7 °C 60.8 °F /  16 °C 29.92 in /  1013.1 hPa Calm     90 % 0.00 in /  0 mm
03:17 63.7 °F /  17.6 °C 60.4 °F /  15.8 °C 29.92 in /  1013.1 hPa Calm     89 % 0.00 in /  0 mm
03:22 63.6 °F /  17.6 °C 60.6 °F /  15.9 °C 29.93 in /  1013.4 hPa Calm     90 % 0.00 in /  0 mm
03:27 63.5 °F /  17.5 °C 60.5 °F /  15.8 °C 29.93 in /  1013.4 hPa Calm     90 % 0.00 in /  0 mm
03:32 63.4 °F /  17.4 °C 60.4 °F /  15.8 °C 29.93 in /  1013.4 hPa Calm     90 % 0.00 in /  0 mm
03:37 63.4 °F /  17.4 °C 60.4 °F /  15.8 °C 29.93 in /  1013.4 hPa Calm     90 % 0.00 in /  0 mm
03:42 63.3 °F /  17.4 °C 60.3 °F /  15.7 °C 29.93 in /  1013.4 hPa Calm     90 % 0.00 in /  0 mm
03:45 63.2 °F /  17.3 °C 60.2 °F /  15.7 °C 29.93 in /  1013.4 hPa Calm     90 % 0.00 in /  0 mm
03:50 63.1 °F /  17.3 °C 60.4 °F /  15.8 °C 29.93 in /  1013.4 hPa Calm     91 % 0.00 in /  0 mm
03:55 63.0 °F /  17.2 °C 60.3 °F /  15.7 °C 29.93 in /  1013.4 hPa Calm     91 % 0.00 in /  0 mm
04:00 62.9 °F /  17.2 °C 60.2 °F /  15.7 °C 29.93 in /  1013.4 hPa Calm   1.2 mph /  1.9 km/h 91 % 0.00 in /  0 mm
04:05 62.8 °F /  17.1 °C 60.4 °F /  15.8 °C 29.93 in /  1013.4 hPa Calm     92 % 0.00 in /  0 mm
04:11 62.7 °F /  17.1 °C 60.0 °F /  15.6 °C 29.93 in /  1013.4 hPa Calm     91 % 0.00 in /  0 mm
04:16 62.7 °F /  17.1 °C 60.0 °F /  15.6 °C 29.93 in /  1013.4 hPa Calm     91 % 0.00 in /  0 mm
04:21 62.6 °F /  17 °C 59.9 °F /  15.5 °C 29.94 in /  1013.8 hPa Calm     91 % 0.00 in /  0 mm
04:26 62.5 °F /  16.9 °C 60.1 °F /  15.6 °C 29.94 in /  1013.8 hPa Calm     92 % 0.00 in /  0 mm
04:31 62.4 °F /  16.9 °C 60.0 °F /  15.6 °C 29.93 in /  1013.4 hPa Calm     92 % 0.00 in /  0 mm
04:36 62.3 °F /  16.8 °C 59.9 °F /  15.5 °C 29.94 in /  1013.8 hPa Calm     92 % 0.00 in /  0 mm
04:41 62.3 °F /  16.8 °C 59.9 °F /  15.5 °C 29.94 in /  1013.8 hPa Calm     92 % 0.00 in /  0 mm
04:46 62.2 °F /  16.8 °C 59.5 °F /  15.3 °C 29.94 in /  1013.8 hPa Calm     91 % 0.00 in /  0 mm
04:51 62.0 °F /  16.7 °C 59.6 °F /  15.3 °C 29.94 in /  1013.8 hPa Calm     92 % 0.00 in /  0 mm
04:54 62.0 °F /  16.7 °C 59.6 °F /  15.3 °C 29.94 in /  1013.8 hPa Calm     92 % 0.00 in /  0 mm
04:59 61.9 °F /  16.6 °C 59.5 °F /  15.3 °C 29.94 in /  1013.8 hPa Calm     92 % 0.00 in /  0 mm
05:04 61.8 °F /  16.6 °C 59.5 °F /  15.3 °C 29.94 in /  1013.8 hPa Calm     92 % 0.00 in /  0 mm
05:09 61.7 °F /  16.5 °C 59.4 °F /  15.2 °C 29.94 in /  1013.8 hPa Calm     92 % 0.00 in /  0 mm
05:14 61.6 °F /  16.4 °C 59.3 °F /  15.2 °C 29.94 in /  1013.8 hPa Calm     92 % 0.00 in /  0 mm
05:19 61.6 °F /  16.4 °C 59.3 °F /  15.2 °C 29.95 in /  1014.1 hPa Calm     92 % 0.00 in /  0 mm
05:24 61.5 °F /  16.4 °C 59.2 °F /  15.1 °C 29.94 in /  1013.8 hPa Calm     92 % 0.00 in /  0 mm
05:29 61.4 °F /  16.3 °C 59.1 °F /  15.1 °C 29.95 in /  1014.1 hPa Calm     92 % 0.00 in /  0 mm
05:34 61.3 °F /  16.3 °C 59.0 °F /  15 °C 29.95 in /  1014.1 hPa Calm     92 % 0.00 in /  0 mm
05:39 61.3 °F /  16.3 °C 59.0 °F /  15 °C 29.95 in /  1014.1 hPa Calm     92 % 0.00 in /  0 mm
05:44 61.2 °F /  16.2 °C 59.2 °F /  15.1 °C 29.96 in /  1014.4 hPa Calm     93 % 0.00 in /  0 mm
05:49 61.2 °F /  16.2 °C 59.2 °F /  15.1 °C 29.96 in /  1014.4 hPa Calm     93 % 0.00 in /  0 mm
05:54 61.1 °F /  16.2 °C 59.1 °F /  15.1 °C 29.96 in /  1014.4 hPa Calm     93 % 0.00 in /  0 mm
05:59 61.2 °F /  16.2 °C 59.2 °F /  15.1 °C 29.96 in /  1014.4 hPa Calm     93 % 0.00 in /  0 mm
06:01 61.2 °F /  16.2 °C 59.2 °F /  15.1 °C 29.96 in /  1014.4 hPa Calm     93 % 0.00 in /  0 mm
06:07 61.2 °F /  16.2 °C 59.2 °F /  15.1 °C 29.96 in /  1014.4 hPa Calm     93 % 0.00 in /  0 mm
06:12 61.2 °F /  16.2 °C 59.2 °F /  15.1 °C 29.96 in /  1014.4 hPa Calm     93 % 0.00 in /  0 mm
06:17 61.3 °F /  16.3 °C 59.6 °F /  15.3 °C 29.96 in /  1014.4 hPa Calm     94 % 0.00 in /  0 mm
06:22 61.3 °F /  16.3 °C 59.6 °F /  15.3 °C 29.96 in /  1014.4 hPa Calm     94 % 0.00 in /  0 mm
06:27 61.4 °F /  16.3 °C 59.7 °F /  15.4 °C 29.96 in /  1014.4 hPa Calm   1.0 mph /  1.6 km/h 94 % 0.00 in /  0 mm
06:32 61.7 °F /  16.5 °C 60.3 °F /  15.7 °C 29.97 in /  1014.8 hPa Calm     95 % 0.00 in /  0 mm
06:37 62.0 °F /  16.7 °C 60.6 °F /  15.9 °C 29.97 in /  1014.8 hPa Calm     95 % 0.00 in /  0 mm
06:42 62.4 °F /  16.9 °C 60.9 °F /  16.1 °C 29.97 in /  1014.8 hPa Calm     95 % 0.00 in /  0 mm
06:47 63.0 °F /  17.2 °C 61.8 °F /  16.6 °C 29.97 in /  1014.8 hPa Calm     96 % 0.00 in /  0 mm
06:52 63.8 °F /  17.7 °C 62.6 °F /  17 °C 29.97 in /  1014.8 hPa Calm     96 % 0.00 in /  0 mm
06:57 64.3 °F /  17.9 °C 63.1 °F /  17.3 °C 29.97 in /  1014.8 hPa Calm     96 % 0.00 in /  0 mm
07:02 64.7 °F /  18.2 °C 63.5 °F /  17.5 °C 29.97 in /  1014.8 hPa Calm     96 % 0.00 in /  0 mm
07:07 64.9 °F /  18.3 °C 63.7 °F /  17.6 °C 29.97 in /  1014.8 hPa Calm     96 % 0.00 in /  0 mm
07:12 65.1 °F /  18.4 °C 63.9 °F /  17.7 °C 29.97 in /  1014.8 hPa Calm     96 % 0.00 in /  0 mm
07:15 65.4 °F /  18.6 °C 63.9 °F /  17.7 °C 29.98 in /  1015.1 hPa Calm     95 % 0.00 in /  0 mm
07:20 65.9 °F /  18.8 °C 64.4 °F /  18 °C 29.98 in /  1015.1 hPa Calm     95 % 0.00 in /  0 mm
07:25 66.3 °F /  19.1 °C 64.5 °F /  18.1 °C 29.98 in /  1015.1 hPa Calm     94 % 0.00 in /  0 mm
07:30 66.9 °F /  19.4 °C 63.9 °F /  17.7 °C 29.98 in /  1015.1 hPa Calm     90 % 0.00 in /  0 mm
07:35 67.4 °F /  19.7 °C 63.7 °F /  17.6 °C 29.98 in /  1015.1 hPa Calm     88 % 0.00 in /  0 mm
07:40 67.9 °F /  19.9 °C 63.9 °F /  17.7 °C 29.99 in /  1015.5 hPa Calm     87 % 0.00 in /  0 mm
07:45 68.2 °F /  20.1 °C 63.5 °F /  17.5 °C 29.98 in /  1015.1 hPa Calm   1.0 mph /  1.6 km/h 85 % 0.00 in /  0 mm
07:50 68.4 °F /  20.2 °C 62.3 °F /  16.8 °C 29.99 in /  1015.5 hPa Calm     81 % 0.00 in /  0 mm
07:55 68.7 °F /  20.4 °C 63.0 °F /  17.2 °C 29.98 in /  1015.1 hPa Calm     82 % 0.00 in /  0 mm
08:00 68.8 °F /  20.4 °C 62.0 °F /  16.7 °C 29.98 in /  1015.1 hPa Calm     79 % 0.00 in /  0 mm
08:06 68.9 °F /  20.5 °C 61.4 °F /  16.3 °C 29.99 in /  1015.5 hPa West 0.1 mph /  0.2 km/h 1.2 mph /  1.9 km/h 77 % 0.00 in /  0 mm
08:11 69.1 °F /  20.6 °C 61.6 °F /  16.4 °C 29.99 in /  1015.5 hPa Calm     77 % 0.00 in /  0 mm
08:16 69.2 °F /  20.7 °C 62.4 °F /  16.9 °C 29.99 in /  1015.5 hPa Calm   3.0 mph /  4.8 km/h 79 % 0.00 in /  0 mm
08:21 69.2 °F /  20.7 °C 61.3 °F /  16.3 °C 29.99 in /  1015.5 hPa Calm   1.2 mph /  1.9 km/h 76 % 0.00 in /  0 mm
08:26 69.3 °F /  20.7 °C 61.4 °F /  16.3 °C 29.99 in /  1015.5 hPa NNW 1.0 mph /  1.6 km/h 3.0 mph /  4.8 km/h 76 % 0.00 in /  0 mm
08:31 69.4 °F /  20.8 °C 60.4 °F /  15.8 °C 30.00 in /  1015.8 hPa Calm   2.0 mph /  3.2 km/h 73 % 0.00 in /  0 mm
08:36 69.6 °F /  20.9 °C 61.3 °F /  16.3 °C 29.99 in /  1015.5 hPa Calm   2.0 mph /  3.2 km/h 75 % 0.00 in /  0 mm
08:41 69.8 °F /  21 °C 60.8 °F /  16 °C 29.99 in /  1015.5 hPa Calm   2.0 mph /  3.2 km/h 73 % 0.00 in /  0 mm
08:46 70.1 °F /  21.2 °C 61.8 °F /  16.6 °C 30.00 in /  1015.8 hPa Calm   1.0 mph /  1.6 km/h 75 % 0.00 in /  0 mm
08:51 70.2 °F /  21.2 °C 61.1 °F /  16.2 °C 30.00 in /  1015.8 hPa North 1.0 mph /  1.6 km/h 2.0 mph /  3.2 km/h 73 % 0.00 in /  0 mm
08:56 70.4 °F /  21.3 °C 60.9 °F /  16.1 °C 30.00 in /  1015.8 hPa North 2.0 mph /  3.2 km/h 4.0 mph /  6.4 km/h 72 % 0.00 in /  0 mm
09:01 70.6 °F /  21.4 °C 61.5 °F /  16.4 °C 30.00 in /  1015.8 hPa North 1.6 mph /  2.6 km/h 2.0 mph /  3.2 km/h 73 % 0.00 in /  0 mm
09:06 70.7 °F /  21.5 °C 60.8 °F /  16 °C 29.99 in /  1015.5 hPa NNE 0.2 mph /  0.3 km/h 2.3 mph /  3.7 km/h 71 % 0.00 in /  0 mm
09:11 70.7 °F /  21.5 °C 60.0 °F /  15.6 °C 29.99 in /  1015.5 hPa NNE 0.8 mph /  1.3 km/h 2.3 mph /  3.7 km/h 69 % 0.00 in /  0 mm
09:16 70.7 °F /  21.5 °C 60.4 °F /  15.8 °C 29.99 in /  1015.5 hPa NNE 1.3 mph /  2.1 km/h 3.5 mph /  5.6 km/h 70 % 0.00 in /  0 mm
09:21 70.8 °F /  21.6 °C 60.5 °F /  15.8 °C 29.98 in /  1015.1 hPa NNE 0.9 mph /  1.4 km/h 2.3 mph /  3.7 km/h 70 % 0.00 in /  0 mm
09:26 70.8 °F /  21.6 °C 60.9 °F /  16.1 °C 29.98 in /  1015.1 hPa Calm   1.2 mph /  1.9 km/h 71 % 0.00 in /  0 mm
09:31 70.9 °F /  21.6 °C 61.4 °F /  16.3 °C 29.98 in /  1015.1 hPa NNE 0.2 mph /  0.3 km/h   72 % 0.00 in /  0 mm
09:36 71.0 °F /  21.7 °C 60.7 °F /  15.9 °C 29.98 in /  1015.1 hPa NNE 0.8 mph /  1.3 km/h 2.3 mph /  3.7 km/h 70 % 0.00 in /  0 mm
09:41 71.2 °F /  21.8 °C 60.9 °F /  16.1 °C 29.97 in /  1014.8 hPa NNE 0.3 mph /  0.5 km/h 1.2 mph /  1.9 km/h 70 % 0.00 in /  0 mm
09:46 71.6 °F /  22 °C 61.3 °F /  16.3 °C 29.97 in /  1014.8 hPa North 2.8 mph /  4.5 km/h 4.6 mph /  7.4 km/h 70 % 0.00 in /  0 mm
09:51 72.2 °F /  22.3 °C 61.9 °F /  16.6 °C 29.98 in /  1015.1 hPa North 2.4 mph /  3.9 km/h 5.8 mph /  9.3 km/h 70 % 0.00 in /  0 mm
09:56 72.9 °F /  22.7 °C 61.3 °F /  16.3 °C 29.97 in /  1014.8 hPa NE 0.6 mph /  1 km/h 2.3 mph /  3.7 km/h 67 % 0.00 in /  0 mm
10:01 73.8 °F /  23.2 °C 62.2 °F /  16.8 °C 29.97 in /  1014.8 hPa NNE 1.4 mph /  2.3 km/h 3.5 mph /  5.6 km/h 67 % 0.00 in /  0 mm
10:06 74.7 °F /  23.7 °C 63.9 °F /  17.7 °C 29.97 in /  1014.8 hPa Calm   1.2 mph /  1.9 km/h 69 % 0.00 in /  0 mm
10:11 75.8 °F /  24.3 °C 63.6 °F /  17.6 °C 29.97 in /  1014.8 hPa Calm   1.2 mph /  1.9 km/h 66 % 0.00 in /  0 mm
10:16 76.8 °F /  24.9 °C 64.1 °F /  17.8 °C 29.97 in /  1014.8 hPa Calm   1.2 mph /  1.9 km/h 65 % 0.00 in /  0 mm
10:21 77.5 °F /  25.3 °C 64.4 °F /  18 °C 29.96 in /  1014.4 hPa WSW 0.6 mph /  1 km/h 2.3 mph /  3.7 km/h 64 % 0.00 in /  0 mm
10:26 78.3 °F /  25.7 °C 64.2 °F /  17.9 °C 29.96 in /  1014.4 hPa North 0.8 mph /  1.3 km/h 2.3 mph /  3.7 km/h 62 % 0.00 in /  0 mm
10:31 78.5 °F /  25.8 °C 63.5 °F /  17.5 °C 29.95 in /  1014.1 hPa Calm     60 % 0.00 in /  0 mm
10:36 78.8 °F /  26 °C 65.1 °F /  18.4 °C 29.95 in /  1014.1 hPa North 0.6 mph /  1 km/h 2.0 mph /  3.2 km/h 63 % 0.00 in /  0 mm
10:41 79.6 °F /  26.4 °C 66.8 °F /  19.3 °C 29.94 in /  1013.8 hPa Calm     65 % 0.00 in /  0 mm
10:47 80.3 °F /  26.8 °C 63.7 °F /  17.6 °C 29.95 in /  1014.1 hPa North 1.2 mph /  1.9 km/h 2.3 mph /  3.7 km/h 57 % 0.00 in /  0 mm
10:52 80.8 °F /  27.1 °C 64.1 °F /  17.8 °C 29.95 in /  1014.1 hPa North 0.3 mph /  0.5 km/h 2.3 mph /  3.7 km/h 57 % 0.00 in /  0 mm
10:56 81.4 °F /  27.4 °C 64.2 °F /  17.9 °C 29.96 in /  1014.4 hPa NNE 1.1 mph /  1.8 km/h 3.5 mph /  5.6 km/h 56 % 0.00 in /  0 mm
11:01 81.7 °F /  27.6 °C 64.5 °F /  18.1 °C 29.96 in /  1014.4 hPa ENE 0.6 mph /  1 km/h 3.5 mph /  5.6 km/h 56 % 0.00 in /  0 mm
11:07 82.1 °F /  27.8 °C 65.4 °F /  18.6 °C 29.95 in /  1014.1 hPa North 0.4 mph /  0.6 km/h 1.2 mph /  1.9 km/h 57 % 0.00 in /  0 mm
11:12 82.6 °F /  28.1 °C 64.8 °F /  18.2 °C 29.95 in /  1014.1 hPa NE 1.0 mph /  1.6 km/h 2.3 mph /  3.7 km/h 55 % 0.00 in /  0 mm
11:17 83.2 °F /  28.4 °C 65.4 °F /  18.6 °C 29.95 in /  1014.1 hPa North 0.7 mph /  1.1 km/h 2.3 mph /  3.7 km/h 55 % 0.00 in /  0 mm
11:22 83.7 °F /  28.7 °C 65.8 °F /  18.8 °C 29.95 in /  1014.1 hPa North 1.2 mph /  1.9 km/h 3.5 mph /  5.6 km/h 55 % 0.00 in /  0 mm
11:27 84.1 °F /  28.9 °C 63.5 °F /  17.5 °C 29.95 in /  1014.1 hPa North 1.9 mph /  3.1 km/h 3.5 mph /  5.6 km/h 50 % 0.00 in /  0 mm
11:32 84.6 °F /  29.2 °C 65.6 °F /  18.7 °C 29.95 in /  1014.1 hPa NNE 2.6 mph /  4.2 km/h 3.5 mph /  5.6 km/h 53 % 0.00 in /  0 mm
11:37 84.8 °F /  29.3 °C 65.2 °F /  18.4 °C 29.95 in /  1014.1 hPa NE 1.2 mph /  1.9 km/h 4.6 mph /  7.4 km/h 52 % 0.00 in /  0 mm
11:42 84.8 °F /  29.3 °C 64.7 °F /  18.2 °C 29.95 in /  1014.1 hPa ENE 0.8 mph /  1.3 km/h 2.3 mph /  3.7 km/h 51 % 0.00 in /  0 mm
11:47 84.8 °F /  29.3 °C 65.2 °F /  18.4 °C 29.95 in /  1014.1 hPa Calm   1.2 mph /  1.9 km/h 52 % 0.00 in /  0 mm
11:52 85.0 °F /  29.4 °C 66.0 °F /  18.9 °C 29.95 in /  1014.1 hPa NE 0.3 mph /  0.5 km/h 2.3 mph /  3.7 km/h 53 % 0.00 in /  0 mm
11:57 85.3 °F /  29.6 °C 62.8 °F /  17.1 °C 29.95 in /  1014.1 hPa WNW 1.1 mph /  1.8 km/h 3.5 mph /  5.6 km/h 47 % 0.00 in /  0 mm
12:02 85.5 °F /  29.7 °C 64.7 °F /  18.2 °C 29.95 in /  1014.1 hPa North 1.8 mph /  2.9 km/h 5.0 mph /  8 km/h 50 % 0.00 in /  0 mm
12:07 85.6 °F /  29.8 °C 63.7 °F /  17.6 °C 29.95 in /  1014.1 hPa NNE 0.3 mph /  0.5 km/h 3.0 mph /  4.8 km/h 48 % 0.00 in /  0 mm
12:12 85.5 °F /  29.7 °C 65.3 °F /  18.5 °C 29.95 in /  1014.1 hPa NW 0.9 mph /  1.4 km/h 3.0 mph /  4.8 km/h 51 % 0.00 in /  0 mm
12:17 85.6 °F /  29.8 °C 63.1 °F /  17.3 °C 29.95 in /  1014.1 hPa North 3.1 mph /  5 km/h 4.6 mph /  7.4 km/h 47 % 0.00 in /  0 mm
12:22 85.6 °F /  29.8 °C 62.4 °F /  16.9 °C 29.95 in /  1014.1 hPa North 0.5 mph /  0.8 km/h 2.3 mph /  3.7 km/h 46 % 0.00 in /  0 mm
12:27 85.5 °F /  29.7 °C 63.6 °F /  17.6 °C 29.95 in /  1014.1 hPa NNE 1.9 mph /  3.1 km/h 3.5 mph /  5.6 km/h 48 % 0.00 in /  0 mm
12:32 85.1 °F /  29.5 °C 62.6 °F /  17 °C 29.95 in /  1014.1 hPa North 2.1 mph /  3.4 km/h 3.5 mph /  5.6 km/h 47 % 0.00 in /  0 mm
12:37 84.8 °F /  29.3 °C 63.5 °F /  17.5 °C 29.95 in /  1014.1 hPa North 2.1 mph /  3.4 km/h 3.5 mph /  5.6 km/h 49 % 0.00 in /  0 mm
12:42 84.5 °F /  29.2 °C 64.9 °F /  18.3 °C 29.94 in /  1013.8 hPa North 0.1 mph /  0.2 km/h 1.2 mph /  1.9 km/h 52 % 0.00 in /  0 mm
12:47 84.1 °F /  28.9 °C 65.7 °F /  18.7 °C 29.94 in /  1013.8 hPa North 1.0 mph /  1.6 km/h 3.0 mph /  4.8 km/h 54 % 0.00 in /  0 mm
12:52 83.7 °F /  28.7 °C 65.3 °F /  18.5 °C 29.94 in /  1013.8 hPa NNE 3.5 mph /  5.6 km/h 3.5 mph /  5.6 km/h 54 % 0.00 in /  0 mm
12:57 83.5 °F /  28.6 °C 64.6 °F /  18.1 °C 29.93 in /  1013.4 hPa ENE 0.6 mph /  1 km/h 2.0 mph /  3.2 km/h 53 % 0.00 in /  0 mm
13:02 83.1 °F /  28.4 °C 64.2 °F /  17.9 °C 29.93 in /  1013.4 hPa ENE 0.3 mph /  0.5 km/h 2.3 mph /  3.7 km/h 53 % 0.00 in /  0 mm
13:07 82.7 °F /  28.2 °C 65.9 °F /  18.8 °C 29.93 in /  1013.4 hPa NNE 0.3 mph /  0.5 km/h 2.3 mph /  3.7 km/h 57 % 0.00 in /  0 mm
13:12 82.1 °F /  27.8 °C 64.8 °F /  18.2 °C 29.93 in /  1013.4 hPa NNE 0.6 mph /  1 km/h 1.2 mph /  1.9 km/h 56 % 0.00 in /  0 mm
13:17 81.8 °F /  27.7 °C 63.5 °F /  17.5 °C 29.93 in /  1013.4 hPa Calm   1.0 mph /  1.6 km/h 54 % 0.00 in /  0 mm
13:22 82.1 °F /  27.8 °C 66.4 °F /  19.1 °C 29.93 in /  1013.4 hPa Calm     59 % 0.00 in /  0 mm
13:27 82.1 °F /  27.8 °C 64.3 °F /  17.9 °C 29.93 in /  1013.4 hPa Calm     55 % 0.00 in /  0 mm
13:30 82.2 °F /  27.9 °C 66.0 °F /  18.9 °C 29.93 in /  1013.4 hPa WSW 2.4 mph /  3.9 km/h 3.5 mph /  5.6 km/h 58 % 0.00 in /  0 mm
13:35 82.6 °F /  28.1 °C 65.3 °F /  18.5 °C 29.93 in /  1013.4 hPa WSW 1.2 mph /  1.9 km/h 3.5 mph /  5.6 km/h 56 % 0.00 in /  0 mm
13:40 83.1 °F /  28.4 °C 65.3 °F /  18.5 °C 29.94 in /  1013.8 hPa SW 2.5 mph /  4 km/h 5.8 mph /  9.3 km/h 55 % 0.00 in /  0 mm
13:50 84.0 °F /  28.9 °C 63.4 °F /  17.4 °C 29.93 in /  1013.4 hPa SW 2.1 mph /  3.4 km/h 4.6 mph /  7.4 km/h 50 % 0.00 in /  0 mm
13:55 84.3 °F /  29.1 °C 64.8 °F /  18.2 °C 29.92 in /  1013.1 hPa SSE 1.6 mph /  2.6 km/h 3.5 mph /  5.6 km/h 52 % 0.00 in /  0 mm
14:00 84.8 °F /  29.3 °C 65.2 °F /  18.4 °C 29.92 in /  1013.1 hPa SW 1.3 mph /  2.1 km/h 3.5 mph /  5.6 km/h 52 % 0.00 in /  0 mm
14:05 85.2 °F /  29.6 °C 65.0 °F /  18.3 °C 29.92 in /  1013.1 hPa SW 2.0 mph /  3.2 km/h 4.6 mph /  7.4 km/h 51 % 0.00 in /  0 mm
14:10 85.5 °F /  29.7 °C 63.6 °F /  17.6 °C 29.92 in /  1013.1 hPa SE 1.7 mph /  2.7 km/h 4.6 mph /  7.4 km/h 48 % 0.00 in /  0 mm
14:15 85.5 °F /  29.7 °C 63.6 °F /  17.6 °C 29.92 in /  1013.1 hPa WSW 3.6 mph /  5.8 km/h 6.9 mph /  11.1 km/h 48 % 0.00 in /  0 mm
14:20 85.8 °F /  29.9 °C 66.1 °F /  18.9 °C 29.92 in /  1013.1 hPa SSE 1.5 mph /  2.4 km/h 3.5 mph /  5.6 km/h 52 % 0.00 in /  0 mm
14:25 86.0 °F /  30 °C 63.4 °F /  17.4 °C 29.91 in /  1012.8 hPa SSW 2.8 mph /  4.5 km/h 4.0 mph /  6.4 km/h 47 % 0.00 in /  0 mm
14:30 86.0 °F /  30 °C 62.8 °F /  17.1 °C 29.91 in /  1012.8 hPa SSE 1.5 mph /  2.4 km/h 3.5 mph /  5.6 km/h 46 % 0.00 in /  0 mm
14:35 85.5 °F /  29.7 °C 64.2 °F /  17.9 °C 29.91 in /  1012.8 hPa South 1.1 mph /  1.8 km/h 4.0 mph /  6.4 km/h 49 % 0.00 in /  0 mm
14:40 85.6 °F /  29.8 °C 64.2 °F /  17.9 °C 29.91 in /  1012.8 hPa SW 3.0 mph /  4.8 km/h 5.8 mph /  9.3 km/h 49 % 0.00 in /  0 mm
14:45 85.6 °F /  29.8 °C 63.7 °F /  17.6 °C 29.91 in /  1012.8 hPa WSW 0.9 mph /  1.4 km/h 3.5 mph /  5.6 km/h 48 % 0.00 in /  0 mm
14:50 85.6 °F /  29.8 °C 63.1 °F /  17.3 °C 29.91 in /  1012.8 hPa West 0.5 mph /  0.8 km/h 3.5 mph /  5.6 km/h 47 % 0.00 in /  0 mm
14:55 85.2 °F /  29.6 °C 62.7 °F /  17.1 °C 29.91 in /  1012.8 hPa SSW 1.8 mph /  2.9 km/h 3.5 mph /  5.6 km/h 47 % 0.00 in /  0 mm
15:00 85.0 °F /  29.4 °C 62.5 °F /  16.9 °C 29.91 in /  1012.8 hPa WSW 1.0 mph /  1.6 km/h 5.0 mph /  8 km/h 47 % 0.00 in /  0 mm
15:05 85.1 °F /  29.5 °C 63.8 °F /  17.7 °C 29.91 in /  1012.8 hPa WSW 3.2 mph /  5.1 km/h 6.9 mph /  11.1 km/h 49 % 0.00 in /  0 mm
15:10 85.3 °F /  29.6 °C 63.4 °F /  17.4 °C 29.91 in /  1012.8 hPa West 0.8 mph /  1.3 km/h 6.9 mph /  11.1 km/h 48 % 0.00 in /  0 mm
15:15 85.5 °F /  29.7 °C 63.6 °F /  17.6 °C 29.91 in /  1012.8 hPa Calm   3.5 mph /  5.6 km/h 48 % 0.00 in /  0 mm
15:20 85.6 °F /  29.8 °C 62.4 °F /  16.9 °C 29.91 in /  1012.8 hPa SE 2.0 mph /  3.2 km/h 4.6 mph /  7.4 km/h 46 % 0.00 in /  0 mm
15:25 85.6 °F /  29.8 °C 63.7 °F /  17.6 °C 29.91 in /  1012.8 hPa WSW 0.6 mph /  1 km/h 3.5 mph /  5.6 km/h 48 % 0.00 in /  0 mm
15:30 85.9 °F /  29.9 °C 64.5 °F /  18.1 °C 29.90 in /  1012.4 hPa SE 0.9 mph /  1.4 km/h 3.5 mph /  5.6 km/h 49 % 0.00 in /  0 mm
15:35 85.9 °F /  29.9 °C 62.7 °F /  17.1 °C 29.91 in /  1012.8 hPa SSW 5.0 mph /  8 km/h 6.9 mph /  11.1 km/h 46 % 0.00 in /  0 mm
15:40 86.0 °F /  30 °C 62.2 °F /  16.8 °C 29.90 in /  1012.4 hPa South 2.4 mph /  3.9 km/h 3.5 mph /  5.6 km/h 45 % 0.00 in /  0 mm
15:45 85.4 °F /  29.7 °C 61.6 °F /  16.4 °C 29.90 in /  1012.4 hPa SE 0.9 mph /  1.4 km/h 3.5 mph /  5.6 km/h 45 % 0.00 in /  0 mm
15:50 85.1 °F /  29.5 °C 63.8 °F /  17.7 °C 29.89 in /  1012.1 hPa SSE 0.6 mph /  1 km/h 2.3 mph /  3.7 km/h 49 % 0.00 in /  0 mm
15:56 84.9 °F /  29.4 °C 63.0 °F /  17.2 °C 29.89 in /  1012.1 hPa SSE 1.0 mph /  1.6 km/h 4.0 mph /  6.4 km/h 48 % 0.00 in /  0 mm
16:01 84.8 °F /  29.3 °C 62.3 °F /  16.8 °C 29.89 in /  1012.1 hPa SE 3.9 mph /  6.3 km/h 5.0 mph /  8 km/h 47 % 0.00 in /  0 mm
16:06 84.1 °F /  28.9 °C 61.7 °F /  16.5 °C 29.89 in /  1012.1 hPa SSE 7.0 mph /  11.3 km/h 12.0 mph /  19.3 km/h 47 % 0.00 in /  0 mm
16:11 83.9 °F /  28.8 °C 63.3 °F /  17.4 °C 29.89 in /  1012.1 hPa South 2.0 mph /  3.2 km/h 6.0 mph /  9.7 km/h 50 % 0.00 in /  0 mm
16:16 83.9 °F /  28.8 °C 63.8 °F /  17.7 °C 29.89 in /  1012.1 hPa SW 0.9 mph /  1.4 km/h 1.2 mph /  1.9 km/h 51 % 0.00 in /  0 mm
16:21 83.9 °F /  28.8 °C 62.1 °F /  16.7 °C 29.89 in /  1012.1 hPa South 2.1 mph /  3.4 km/h 3.5 mph /  5.6 km/h 48 % 0.00 in /  0 mm
16:26 83.9 °F /  28.8 °C 62.7 °F /  17.1 °C 29.88 in /  1011.7 hPa SE 1.4 mph /  2.3 km/h 3.5 mph /  5.6 km/h 49 % 0.00 in /  0 mm
16:31 83.8 °F /  28.8 °C 63.2 °F /  17.3 °C 29.89 in /  1012.1 hPa SW 2.0 mph /  3.2 km/h 3.5 mph /  5.6 km/h 50 % 0.00 in /  0 mm
16:36 83.9 °F /  28.8 °C 64.4 °F /  18 °C 29.89 in /  1012.1 hPa WSW 0.8 mph /  1.3 km/h 3.5 mph /  5.6 km/h 52 % 0.00 in /  0 mm
16:41 83.9 °F /  28.8 °C 63.3 °F /  17.4 °C 29.89 in /  1012.1 hPa SW 2.8 mph /  4.5 km/h 4.6 mph /  7.4 km/h 50 % 0.00 in /  0 mm
16:46 83.9 °F /  28.8 °C 63.8 °F /  17.7 °C 29.89 in /  1012.1 hPa WSW 0.4 mph /  0.6 km/h 3.5 mph /  5.6 km/h 51 % 0.00 in /  0 mm
16:51 83.8 °F /  28.8 °C 63.2 °F /  17.3 °C 29.89 in /  1012.1 hPa SSE 0.6 mph /  1 km/h 2.3 mph /  3.7 km/h 50 % 0.00 in /  0 mm
16:56 83.7 °F /  28.7 °C 62.5 °F /  16.9 °C 29.89 in /  1012.1 hPa SE 1.9 mph /  3.1 km/h 3.5 mph /  5.6 km/h 49 % 0.00 in /  0 mm
17:01 83.3 °F /  28.5 °C 62.7 °F /  17.1 °C 29.88 in /  1011.7 hPa SSE 0.8 mph /  1.3 km/h 4.0 mph /  6.4 km/h 50 % 0.00 in /  0 mm
17:06 83.0 °F /  28.3 °C 63.6 °F /  17.6 °C 29.89 in /  1012.1 hPa SW 1.2 mph /  1.9 km/h 4.6 mph /  7.4 km/h 52 % 0.00 in /  0 mm
17:11 82.6 °F /  28.1 °C 63.7 °F /  17.6 °C 29.88 in /  1011.7 hPa SSE 1.8 mph /  2.9 km/h 3.5 mph /  5.6 km/h 53 % 0.00 in /  0 mm
17:16 82.3 °F /  27.9 °C 64.0 °F /  17.8 °C 29.88 in /  1011.7 hPa SE 0.7 mph /  1.1 km/h 3.5 mph /  5.6 km/h 54 % 0.00 in /  0 mm
17:21 81.9 °F /  27.7 °C 64.1 °F /  17.8 °C 29.87 in /  1011.4 hPa SSE 4.3 mph /  6.9 km/h 8.1 mph /  13 km/h 55 % 0.00 in /  0 mm
17:26 81.6 °F /  27.6 °C 64.9 °F /  18.3 °C 29.87 in /  1011.4 hPa SE 1.8 mph /  2.9 km/h 4.6 mph /  7.4 km/h 57 % 0.00 in /  0 mm
17:31 81.5 °F /  27.5 °C 65.8 °F /  18.8 °C 29.86 in /  1011.1 hPa SSE 1.6 mph /  2.6 km/h 2.3 mph /  3.7 km/h 59 % 0.00 in /  0 mm
17:36 81.3 °F /  27.4 °C 64.6 °F /  18.1 °C 29.87 in /  1011.4 hPa South 1.6 mph /  2.6 km/h 3.5 mph /  5.6 km/h 57 % 0.00 in /  0 mm
17:42 81.3 °F /  27.4 °C 64.6 °F /  18.1 °C 29.86 in /  1011.1 hPa SE 4.2 mph /  6.8 km/h 6.9 mph /  11.1 km/h 57 % 0.00 in /  0 mm
17:47 81.3 °F /  27.4 °C 64.6 °F /  18.1 °C 29.86 in /  1011.1 hPa SW 1.5 mph /  2.4 km/h 5.8 mph /  9.3 km/h 57 % 0.00 in /  0 mm
17:52 81.2 °F /  27.3 °C 64.0 °F /  17.8 °C 29.85 in /  1010.7 hPa South 2.1 mph /  3.4 km/h 5.8 mph /  9.3 km/h 56 % 0.00 in /  0 mm
17:57 81.2 °F /  27.3 °C 63.5 °F /  17.5 °C 29.85 in /  1010.7 hPa SE 2.2 mph /  3.5 km/h 4.6 mph /  7.4 km/h 55 % 0.00 in /  0 mm
18:02 81.2 °F /  27.3 °C 64.0 °F /  17.8 °C 29.86 in /  1011.1 hPa South 1.2 mph /  1.9 km/h 5.8 mph /  9.3 km/h 56 % 0.00 in /  0 mm
18:07 81.1 °F /  27.3 °C 63.4 °F /  17.4 °C 29.86 in /  1011.1 hPa South 2.2 mph /  3.5 km/h 4.0 mph /  6.4 km/h 55 % 0.00 in /  0 mm
18:13 81.1 °F /  27.3 °C 62.9 °F /  17.2 °C 29.86 in /  1011.1 hPa WSW 1.2 mph /  1.9 km/h 5.0 mph /  8 km/h 54 % 0.00 in /  0 mm
18:18 81.0 °F /  27.2 °C 61.7 °F /  16.5 °C 29.87 in /  1011.4 hPa SE 2.6 mph /  4.2 km/h 8.1 mph /  13 km/h 52 % 0.00 in /  0 mm
18:23 80.9 °F /  27.2 °C 61.6 °F /  16.4 °C 29.86 in /  1011.1 hPa SSW 2.6 mph /  4.2 km/h 6.9 mph /  11.1 km/h 52 % 0.00 in /  0 mm
18:28 80.9 °F /  27.2 °C 61.6 °F /  16.4 °C 29.87 in /  1011.4 hPa South 0.4 mph /  0.6 km/h 2.3 mph /  3.7 km/h 52 % 0.00 in /  0 mm
18:33 80.8 °F /  27.1 °C 62.1 °F /  16.7 °C 29.86 in /  1011.1 hPa South 2.6 mph /  4.2 km/h 8.1 mph /  13 km/h 53 % 0.00 in /  0 mm
18:38 80.8 °F /  27.1 °C 61.0 °F /  16.1 °C 29.86 in /  1011.1 hPa South 2.7 mph /  4.3 km/h 6.9 mph /  11.1 km/h 51 % 0.00 in /  0 mm
18:43 80.6 °F /  27 °C 61.3 °F /  16.3 °C 29.86 in /  1011.1 hPa SE 1.3 mph /  2.1 km/h 3.5 mph /  5.6 km/h 52 % 0.00 in /  0 mm
18:48 80.5 °F /  26.9 °C 61.8 °F /  16.6 °C 29.86 in /  1011.1 hPa SSW 2.6 mph /  4.2 km/h 3.5 mph /  5.6 km/h 53 % 0.00 in /  0 mm
18:53 80.3 °F /  26.8 °C 61.1 °F /  16.2 °C 29.86 in /  1011.1 hPa SSW 0.5 mph /  0.8 km/h 3.5 mph /  5.6 km/h 52 % 0.00 in /  0 mm
18:58 80.1 °F /  26.7 °C 61.4 °F /  16.3 °C 29.86 in /  1011.1 hPa WSW 2.3 mph /  3.7 km/h 4.6 mph /  7.4 km/h 53 % 0.00 in /  0 mm
19:03 80.0 °F /  26.7 °C 61.3 °F /  16.3 °C 29.86 in /  1011.1 hPa SSW 1.4 mph /  2.3 km/h 3.5 mph /  5.6 km/h 53 % 0.00 in /  0 mm
19:08 79.8 °F /  26.6 °C 61.1 °F /  16.2 °C 29.87 in /  1011.4 hPa South 0.9 mph /  1.4 km/h 3.5 mph /  5.6 km/h 53 % 0.00 in /  0 mm
19:13 79.5 °F /  26.4 °C 60.9 °F /  16.1 °C 29.86 in /  1011.1 hPa ESE 1.6 mph /  2.6 km/h 3.5 mph /  5.6 km/h 53 % 0.00 in /  0 mm
19:18 79.3 °F /  26.3 °C 60.7 °F /  15.9 °C 29.87 in /  1011.4 hPa SSW 1.6 mph /  2.6 km/h 5.8 mph /  9.3 km/h 53 % 0.00 in /  0 mm
19:23 79.1 °F /  26.2 °C 61.0 °F /  16.1 °C 29.87 in /  1011.4 hPa SSW 2.4 mph /  3.9 km/h 4.6 mph /  7.4 km/h 54 % 0.00 in /  0 mm
19:28 78.9 °F /  26.1 °C 61.4 °F /  16.3 °C 29.87 in /  1011.4 hPa SSW 2.0 mph /  3.2 km/h 5.8 mph /  9.3 km/h 55 % 0.00 in /  0 mm
19:33 78.8 °F /  26 °C 61.3 °F /  16.3 °C 29.87 in /  1011.4 hPa SE 2.3 mph /  3.7 km/h 5.0 mph /  8 km/h 55 % 0.00 in /  0 mm
19:39 78.6 °F /  25.9 °C 61.6 °F /  16.4 °C 29.87 in /  1011.4 hPa SSE 1.0 mph /  1.6 km/h 3.5 mph /  5.6 km/h 56 % 0.00 in /  0 mm
19:44 78.4 °F /  25.8 °C 62.4 °F /  16.9 °C 29.87 in /  1011.4 hPa SSW 1.7 mph /  2.7 km/h 3.5 mph /  5.6 km/h 58 % 0.00 in /  0 mm
19:49 78.0 °F /  25.6 °C 62.5 °F /  16.9 °C 29.87 in /  1011.4 hPa South 0.9 mph /  1.4 km/h 3.5 mph /  5.6 km/h 59 % 0.00 in /  0 mm
19:54 77.7 °F /  25.4 °C 62.7 °F /  17.1 °C 29.86 in /  1011.1 hPa SSE 2.7 mph /  4.3 km/h 9.2 mph /  14.8 km/h 60 % 0.00 in /  0 mm
19:59 77.4 °F /  25.2 °C 62.9 °F /  17.2 °C 29.86 in /  1011.1 hPa South 2.6 mph /  4.2 km/h 5.8 mph /  9.3 km/h 61 % 0.00 in /  0 mm
20:04 77.1 °F /  25.1 °C 63.1 °F /  17.3 °C 29.86 in /  1011.1 hPa SSE 2.5 mph /  4 km/h 4.6 mph /  7.4 km/h 62 % 0.00 in /  0 mm
20:09 76.9 °F /  24.9 °C 63.3 °F /  17.4 °C 29.86 in /  1011.1 hPa SE 1.7 mph /  2.7 km/h 3.5 mph /  5.6 km/h 63 % 0.00 in /  0 mm
20:14 76.6 °F /  24.8 °C 63.5 °F /  17.5 °C 29.86 in /  1011.1 hPa South 1.9 mph /  3.1 km/h 4.0 mph /  6.4 km/h 64 % 0.00 in /  0 mm
20:19 76.3 °F /  24.6 °C 64.1 °F /  17.8 °C 29.86 in /  1011.1 hPa SSW 1.3 mph /  2.1 km/h 3.5 mph /  5.6 km/h 66 % 0.00 in /  0 mm
20:24 76.1 °F /  24.5 °C 64.3 °F /  17.9 °C 29.86 in /  1011.1 hPa SE 0.9 mph /  1.4 km/h 3.5 mph /  5.6 km/h 67 % 0.00 in /  0 mm
20:29 75.9 °F /  24.4 °C 64.2 °F /  17.9 °C 29.86 in /  1011.1 hPa SE 1.9 mph /  3.1 km/h 6.0 mph /  9.7 km/h 67 % 0.00 in /  0 mm
20:34 75.7 °F /  24.3 °C 64.4 °F /  18 °C 29.86 in /  1011.1 hPa SSE 1.3 mph /  2.1 km/h 4.6 mph /  7.4 km/h 68 % 0.00 in /  0 mm
20:39 75.6 °F /  24.2 °C 64.7 °F /  18.2 °C 29.86 in /  1011.1 hPa SE 3.5 mph /  5.6 km/h 5.8 mph /  9.3 km/h 69 % 0.00 in /  0 mm
20:44 75.4 °F /  24.1 °C 64.9 °F /  18.3 °C 29.86 in /  1011.1 hPa SSE 1.0 mph /  1.6 km/h 3.5 mph /  5.6 km/h 70 % 0.00 in /  0 mm
20:49 75.3 °F /  24.1 °C 65.2 °F /  18.4 °C 29.86 in /  1011.1 hPa South 0.6 mph /  1 km/h 3.5 mph /  5.6 km/h 71 % 0.00 in /  0 mm
20:54 75.1 °F /  23.9 °C 65.5 °F /  18.6 °C 29.86 in /  1011.1 hPa South 0.4 mph /  0.6 km/h 2.3 mph /  3.7 km/h 72 % 0.00 in /  0 mm
20:59 75.0 °F /  23.9 °C 65.8 °F /  18.8 °C 29.86 in /  1011.1 hPa SSE 1.3 mph /  2.1 km/h 3.0 mph /  4.8 km/h 73 % 0.00 in /  0 mm
21:04 74.9 °F /  23.8 °C 66.1 °F /  18.9 °C 29.86 in /  1011.1 hPa South 0.6 mph /  1 km/h 2.3 mph /  3.7 km/h 74 % 0.00 in /  0 mm
21:09 74.8 °F /  23.8 °C 66.3 °F /  19.1 °C 29.87 in /  1011.4 hPa SSE 0.8 mph /  1.3 km/h 4.0 mph /  6.4 km/h 75 % 0.00 in /  0 mm
21:14 74.6 °F /  23.7 °C 66.9 °F /  19.4 °C 29.86 in /  1011.1 hPa South 1.4 mph /  2.3 km/h 10.4 mph /  16.7 km/h 77 % 0.00 in /  0 mm
21:19 74.5 °F /  23.6 °C 67.2 °F /  19.6 °C 29.87 in /  1011.4 hPa SSW 1.4 mph /  2.3 km/h 3.5 mph /  5.6 km/h 78 % 0.00 in /  0 mm
21:24 74.3 °F /  23.5 °C 67.4 °F /  19.7 °C 29.86 in /  1011.1 hPa SSE 0.3 mph /  0.5 km/h 5.8 mph /  9.3 km/h 79 % 0.00 in /  0 mm
21:29 74.3 °F /  23.5 °C 67.7 °F /  19.8 °C 29.87 in /  1011.4 hPa SE 0.8 mph /  1.3 km/h 5.8 mph /  9.3 km/h 80 % 0.00 in /  0 mm
21:34 74.1 °F /  23.4 °C 67.5 °F /  19.7 °C 29.87 in /  1011.4 hPa South 1.5 mph /  2.4 km/h 4.0 mph /  6.4 km/h 80 % 0.00 in /  0 mm
21:39 74.0 °F /  23.3 °C 68.2 °F /  20.1 °C 29.86 in /  1011.1 hPa South 1.8 mph /  2.9 km/h 3.5 mph /  5.6 km/h 82 % 0.00 in /  0 mm
21:44 73.9 °F /  23.3 °C 68.4 °F /  20.2 °C 29.86 in /  1011.1 hPa SE 0.9 mph /  1.4 km/h 8.1 mph /  13 km/h 83 % 0.00 in /  0 mm
21:50 73.8 °F /  23.2 °C 68.3 °F /  20.2 °C 29.86 in /  1011.1 hPa SSE 0.8 mph /  1.3 km/h 2.0 mph /  3.2 km/h 83 % 0.00 in /  0 mm
21:55 73.7 °F /  23.2 °C 68.6 °F /  20.3 °C 29.86 in /  1011.1 hPa SE 1.7 mph /  2.7 km/h 3.5 mph /  5.6 km/h 84 % 0.00 in /  0 mm
22:00 73.7 °F /  23.2 °C 68.6 °F /  20.3 °C 29.86 in /  1011.1 hPa SE 0.1 mph /  0.2 km/h 2.3 mph /  3.7 km/h 84 % 0.00 in /  0 mm
22:05 73.6 °F /  23.1 °C 68.5 °F /  20.3 °C 29.86 in /  1011.1 hPa South 0.2 mph /  0.3 km/h 1.2 mph /  1.9 km/h 84 % 0.00 in /  0 mm
22:10 73.6 °F /  23.1 °C 68.8 °F /  20.4 °C 29.86 in /  1011.1 hPa SSE 0.4 mph /  0.6 km/h 3.5 mph /  5.6 km/h 85 % 0.00 in /  0 mm
22:15 73.5 °F /  23.1 °C 68.7 °F /  20.4 °C 29.86 in /  1011.1 hPa WSW 1.4 mph /  2.3 km/h 3.5 mph /  5.6 km/h 85 % 0.00 in /  0 mm
22:20 73.5 °F /  23.1 °C 68.7 °F /  20.4 °C 29.86 in /  1011.1 hPa SSE 0.6 mph /  1 km/h 2.3 mph /  3.7 km/h 85 % 0.00 in /  0 mm
22:25 73.5 °F /  23.1 °C 68.7 °F /  20.4 °C 29.86 in /  1011.1 hPa SSE 1.2 mph /  1.9 km/h 3.5 mph /  5.6 km/h 85 % 0.00 in /  0 mm
22:30 73.5 °F /  23.1 °C 69.1 °F /  20.6 °C 29.86 in /  1011.1 hPa SSE 1.4 mph /  2.3 km/h 4.6 mph /  7.4 km/h 86 % 0.00 in /  0 mm
22:35 73.5 °F /  23.1 °C 69.1 °F /  20.6 °C 29.86 in /  1011.1 hPa West 0.5 mph /  0.8 km/h 3.5 mph /  5.6 km/h 86 % 0.00 in /  0 mm
22:40 73.5 °F /  23.1 °C 69.1 °F /  20.6 °C 29.86 in /  1011.1 hPa WSW 1.7 mph /  2.7 km/h 5.8 mph /  9.3 km/h 86 % 0.00 in /  0 mm
22:45 73.5 °F /  23.1 °C 69.1 °F /  20.6 °C 29.86 in /  1011.1 hPa South 0.9 mph /  1.4 km/h 2.3 mph /  3.7 km/h 86 % 0.00 in /  0 mm
22:50 73.5 °F /  23.1 °C 69.1 °F /  20.6 °C 29.86 in /  1011.1 hPa SSW 0.9 mph /  1.4 km/h 2.3 mph /  3.7 km/h 86 % 0.00 in /  0 mm
22:55 73.6 °F /  23.1 °C 69.2 °F /  20.7 °C 29.86 in /  1011.1 hPa South 0.2 mph /  0.3 km/h 1.2 mph /  1.9 km/h 86 % 0.00 in /  0 mm
23:00 73.6 °F /  23.1 °C 69.2 °F /  20.7 °C 29.86 in /  1011.1 hPa South 0.2 mph /  0.3 km/h 1.2 mph /  1.9 km/h 86 % 0.00 in /  0 mm
23:05 73.6 °F /  23.1 °C 69.2 °F /  20.7 °C 29.86 in /  1011.1 hPa SE 0.8 mph /  1.3 km/h 3.5 mph /  5.6 km/h 86 % 0.00 in /  0 mm
23:08 73.7 °F /  23.2 °C 69.2 °F /  20.7 °C 29.85 in /  1010.7 hPa South 1.8 mph /  2.9 km/h 2.3 mph /  3.7 km/h 86 % 0.00 in /  0 mm
23:13 73.7 °F /  23.2 °C 69.6 °F /  20.9 °C 29.86 in /  1011.1 hPa Calm   2.3 mph /  3.7 km/h 87 % 0.00 in /  0 mm
23:18 73.7 °F /  23.2 °C 69.6 °F /  20.9 °C 29.86 in /  1011.1 hPa SSW 2.3 mph /  3.7 km/h 3.5 mph /  5.6 km/h 87 % 0.00 in /  0 mm
23:23 73.7 °F /  23.2 °C 69.6 °F /  20.9 °C 29.86 in /  1011.1 hPa South 2.9 mph /  4.7 km/h 4.0 mph /  6.4 km/h 87 % 0.00 in /  0 mm
23:28 73.7 °F /  23.2 °C 69.6 °F /  20.9 °C 29.86 in /  1011.1 hPa South 1.1 mph /  1.8 km/h 3.0 mph /  4.8 km/h 87 % 0.00 in /  0 mm
23:33 73.8 °F /  23.2 °C 69.7 °F /  20.9 °C 29.85 in /  1010.7 hPa SW 1.6 mph /  2.6 km/h 3.5 mph /  5.6 km/h 87 % 0.00 in /  0 mm
23:38 73.9 °F /  23.3 °C 69.8 °F /  21 °C 29.86 in /  1011.1 hPa SW 1.3 mph /  2.1 km/h 3.5 mph /  5.6 km/h 87 % 0.00 in /  0 mm
23:43 73.9 °F /  23.3 °C 69.8 °F /  21 °C 29.85 in /  1010.7 hPa SW 0.9 mph /  1.4 km/h 4.6 mph /  7.4 km/h 87 % 0.00 in /  0 mm
23:45 74.0 °F /  23.3 °C 69.9 °F /  21.1 °C 29.85 in /  1010.7 hPa SW 1.1 mph /  1.8 km/h 2.3 mph /  3.7 km/h 87 % 0.00 in /  0 mm
23:50 74.0 °F /  23.3 °C 69.9 °F /  21.1 °C 29.86 in /  1011.1 hPa SSW 1.7 mph /  2.7 km/h 4.6 mph /  7.4 km/h 87 % 0.00 in /  0 mm
23:55 74.1 °F /  23.4 °C 70.0 °F /  21.1 °C 29.86 in /  1011.1 hPa SSW 2.7 mph /  4.3 km/h 4.0 mph /  6.4 km/h 87 % 0.00 in /  0 mm
Crab Meadow Weather
Compliments of Weather Underground - 3 mb

Script developed by  Jim McMurry - jmcmurry@mwt.net Adapted for the template by  Wim van der Kuil - Leuven-Template.eu

Astronomy: One day on Uranus is 18 hours